Time;durP1;ratioP1;P1;durP2;ratioP2;P2;SDS_P1;SDS_P2;PMS_P1;PMS_P2;Temp;Humidity;BMP_temperature;BMP_pressure;BME280_temperature;BME280_humidity;BME280_pressure;Samples;Min_cycle;Max_cycle;Signal;HPM_P1;HPM_P2
2022/08/29 00:01:40;;;;;;;6.35;5.75;;;;;;;;;;5061600;28;20197;-69
2022/08/29 00:04:06;;;;;;;6.47;6.07;;;;;;;;;;5061664;28;20267;-69
2022/08/29 00:06:32;;;;;;;7.03;6.35;;;;;;;;;;5061484;28;20279;-69
2022/08/29 00:08:59;;;;;;;6.00;5.43;;;;;;;;;;5061311;28;20197;-69
2022/08/29 00:11:25;;;;;;;6.25;5.80;;;;;;;;;;5061321;28;20201;-69
2022/08/29 00:13:52;;;;;;;9.05;6.00;;;;;;;;;;5061626;28;20266;-69
2022/08/29 00:16:19;;;;;;;6.47;5.82;;;;;;;;;;5061584;28;20197;-69
2022/08/29 00:18:45;;;;;;;5.53;5.03;;;;;;;;;;5061472;28;20212;-69
2022/08/29 00:21:11;;;;;;;5.97;5.57;;;;;;;;;;5061226;28;20225;-69
2022/08/29 00:23:38;;;;;;;6.97;6.22;;;;;;;;;;5061372;28;20197;-69
2022/08/29 00:26:04;;;;;;;8.50;5.93;;;;;;;;;;5061585;28;20197;-69
2022/08/29 00:28:31;;;;;;;6.82;5.60;;;;;;;;;;5061621;28;20408;-69
2022/08/29 00:30:58;;;;;;;6.75;6.15;;;;;;;;;;5064546;28;20265;-69
2022/08/29 00:33:24;;;;;;;7.18;6.38;;;;;;;;;;5064821;28;20197;-69
2022/08/29 00:35:51;;;;;;;7.00;6.47;;;;;;;;;;5064755;28;20201;-69
2022/08/29 00:38:17;;;;;;;7.72;6.97;;;;;;;;;;5065171;28;20197;-69
2022/08/29 00:40:44;;;;;;;7.57;6.22;;;;;;;;;;5064643;28;20297;-69
2022/08/29 00:43:11;;;;;;;7.05;6.28;;;;;;;;;;5064827;28;20480;-69
2022/08/29 00:45:41;;;;;;;7.53;6.75;;;;;;;;;;5064764;28;20232;-69
2022/08/29 00:48:11;;;;;;;7.63;6.60;;;;;;;;;;5064670;28;20251;-69
2022/08/29 00:50:39;;;;;;;9.05;6.35;;;;;;;;;;5064290;28;20197;-69
2022/08/29 00:53:07;;;;;;;7.30;6.50;;;;;;;;;;5064323;28;20209;-69
2022/08/29 00:55:35;;;;;;;7.60;6.88;;;;;;;;;;5064580;28;20251;-69
2022/08/29 00:58:03;;;;;;;7.53;6.90;;;;;;;;;;5064325;28;20242;-69
2022/08/29 01:00:30;;;;;;;6.28;5.78;;;;;;;;;;5064062;28;20248;-69
2022/08/29 01:02:56;;;;;;;6.75;6.13;;;;;;;;;;5064410;28;20201;-69
2022/08/29 01:05:24;;;;;;;6.72;6.07;;;;;;;;;;5064432;28;20240;-69
2022/08/29 01:07:51;;;;;;;7.28;6.57;;;;;;;;;;5064459;28;20205;-69
2022/08/29 01:12:59;;;;;;;6.95;6.07;;;;;;;;;;5063836;28;20207;-69
2022/08/29 01:15:26;;;;;;;6.45;5.88;;;;;;;;;;5064567;28;20201;-69
2022/08/29 01:17:52;;;;;;;7.32;6.63;;;;;;;;;;5064089;28;20197;-69
2022/08/29 01:20:22;;;;;;;6.50;6.00;;;;;;;;;;5063658;28;20239;-69
2022/08/29 01:22:56;;;;;;;10.10;5.95;;;;;;;;;;5064025;28;20497;-69
2022/08/29 01:25:25;;;;;;;6.90;6.15;;;;;;;;;;5063872;28;20203;-69
2022/08/29 01:27:54;;;;;;;6.45;6.03;;;;;;;;;;5063875;28;20526;-69
2022/08/29 01:30:20;;;;;;;6.95;6.28;;;;;;;;;;5063572;28;20224;-69
2022/08/29 01:32:47;;;;;;;9.52;6.25;;;;;;;;;;5064014;28;20201;-69
2022/08/29 01:35:14;;;;;;;7.30;6.57;;;;;;;;;;5063039;28;20198;-69
2022/08/29 01:37:41;;;;;;;7.00;6.40;;;;;;;;;;5063377;28;20198;-69
2022/08/29 01:40:08;;;;;;;7.40;6.55;;;;;;;;;;5063165;28;20221;-69
2022/08/29 01:42:36;;;;;;;6.72;6.13;;;;;;;;;;5063770;28;20197;-69
2022/08/29 01:45:02;;;;;;;6.10;5.70;;;;;;;;;;5063605;28;20465;-69
2022/08/29 01:47:30;;;;;;;7.72;5.93;;;;;;;;;;5063522;28;20204;-69
2022/08/29 01:49:56;;;;;;;6.32;5.75;;;;;;;;;;5063178;28;20228;-69
2022/08/29 01:52:22;;;;;;;6.80;6.18;;;;;;;;;;5063721;28;20197;-69
2022/08/29 01:54:49;;;;;;;6.85;6.18;;;;;;;;;;5063424;28;20308;-69
2022/08/29 01:57:16;;;;;;;6.47;5.78;;;;;;;;;;5063283;28;20220;-68
2022/08/29 01:59:44;;;;;;;6.63;6.10;;;;;;;;;;5063095;28;20221;-69
2022/08/29 02:02:14;;;;;;;6.15;5.72;;;;;;;;;;5063280;28;20200;-69
2022/08/29 02:04:40;;;;;;;7.28;5.82;;;;;;;;;;5062954;28;20505;-69
2022/08/29 02:07:06;;;;;;;5.97;5.40;;;;;;;;;;5062899;28;20197;-69
2022/08/29 02:09:33;;;;;;;10.30;5.85;;;;;;;;;;5063222;28;20509;-69
2022/08/29 02:12:01;;;;;;;6.68;6.07;;;;;;;;;;5063136;28;20275;-69
2022/08/29 02:14:28;;;;;;;7.88;6.30;;;;;;;;;;5063030;28;20243;-69
2022/08/29 02:16:56;;;;;;;7.30;6.55;;;;;;;;;;5062833;28;20197;-69
2022/08/29 02:19:22;;;;;;;6.78;6.18;;;;;;;;;;5062546;28;20235;-69
2022/08/29 02:21:49;;;;;;;7.03;6.32;;;;;;;;;;5062854;28;20288;-69
2022/08/29 02:24:16;;;;;;;15.15;6.97;;;;;;;;;;5063060;28;20197;-69
2022/08/29 02:26:43;;;;;;;8.32;6.20;;;;;;;;;;5062852;28;20235;-69
2022/08/29 02:29:11;;;;;;;7.80;6.78;;;;;;;;;;5062417;28;20197;-69
2022/08/29 02:31:37;;;;;;;6.82;6.32;;;;;;;;;;5062571;28;20192;-69
2022/08/29 02:34:05;;;;;;;6.75;6.22;;;;;;;;;;5062563;28;20208;-69
2022/08/29 02:36:31;;;;;;;8.10;6.97;;;;;;;;;;5062721;28;20204;-69
2022/08/29 02:38:57;;;;;;;7.57;6.90;;;;;;;;;;5062529;28;20243;-69
2022/08/29 02:41:24;;;;;;;6.70;6.20;;;;;;;;;;5062781;28;20220;-69
2022/08/29 02:43:50;;;;;;;7.53;6.68;;;;;;;;;;5062411;28;20197;-69
2022/08/29 02:46:17;;;;;;;9.20;6.95;;;;;;;;;;5062434;28;20492;-69
2022/08/29 02:48:44;;;;;;;7.00;6.38;;;;;;;;;;5062406;28;20212;-68
2022/08/29 02:51:17;;;;;;;8.40;6.65;;;;;;;;;;5061895;28;20193;-69
2022/08/29 02:53:44;;;;;;;7.90;7.10;;;;;;;;;;5062202;28;20250;-69
2022/08/29 02:56:10;;;;;;;9.77;6.63;;;;;;;;;;5062238;28;20208;-69
2022/08/29 02:58:36;;;;;;;7.13;6.53;;;;;;;;;;5062345;28;20513;-69
2022/08/29 03:01:02;;;;;;;8.43;7.22;;;;;;;;;;5061903;28;20221;-69
2022/08/29 03:03:29;;;;;;;8.45;7.60;;;;;;;;;;5062374;28;20465;-69
2022/08/29 03:05:55;;;;;;;9.30;7.55;;;;;;;;;;5062102;28;20571;-69
2022/08/29 03:08:23;;;;;;;6.88;6.28;;;;;;;;;;5062226;28;20197;-69
2022/08/29 03:10:49;;;;;;;7.95;6.75;;;;;;;;;;5061932;28;20414;-69
2022/08/29 03:13:17;;;;;;;10.68;7.22;;;;;;;;;;5061946;28;20201;-69
2022/08/29 03:15:43;;;;;;;7.78;6.97;;;;;;;;;;5062235;28;20208;-69
2022/08/29 03:18:10;;;;;;;8.82;6.72;;;;;;;;;;5062251;28;20235;-69
2022/08/29 03:20:37;;;;;;;7.60;6.90;;;;;;;;;;5061717;28;20217;-69
2022/08/29 03:23:04;;;;;;;9.38;6.70;;;;;;;;;;5062042;28;20517;-69
2022/08/29 03:25:31;;;;;;;8.05;6.97;;;;;;;;;;5061894;28;20204;-69
2022/08/29 03:27:58;;;;;;;7.65;6.97;;;;;;;;;;5061906;28;20216;-69
2022/08/29 03:30:25;;;;;;;8.23;7.60;;;;;;;;;;5061651;28;20197;-69
2022/08/29 03:32:51;;;;;;;8.02;7.22;;;;;;;;;;5062260;28;20524;-68
2022/08/29 03:35:18;;;;;;;8.48;7.05;;;;;;;;;;5061905;28;20243;-69
2022/08/29 03:37:45;;;;;;;8.52;7.63;;;;;;;;;;5061905;28;20228;-69
2022/08/29 03:40:12;;;;;;;7.57;6.97;;;;;;;;;;5061580;28;20198;-69
2022/08/29 03:42:41;;;;;;;9.48;7.05;;;;;;;;;;5061614;28;20197;-69
2022/08/29 03:45:09;;;;;;;7.10;6.50;;;;;;;;;;5061945;28;20204;-69
2022/08/29 03:47:35;;;;;;;9.30;6.88;;;;;;;;;;5061947;28;20197;-69
2022/08/29 03:50:02;;;;;;;7.60;6.90;;;;;;;;;;5061515;28;20231;-68
2022/08/29 03:52:28;;;;;;;9.32;6.95;;;;;;;;;;5061680;28;20238;-68
2022/08/29 03:54:54;;;;;;;7.40;6.72;;;;;;;;;;5061617;28;20366;-68
2022/08/29 03:57:20;;;;;;;9.23;7.35;;;;;;;;;;5061704;28;20213;-69
2022/08/29 03:59:48;;;;;;;9.25;7.72;;;;;;;;;;5061607;28;20212;-68
2022/08/29 04:02:17;;;;;;;8.45;7.20;;;;;;;;;;5061501;28;20225;-69
2022/08/29 04:07:27;;;;;;;8.38;7.50;;;;;;;;;;5065430;28;20274;-69
2022/08/29 04:09:53;;;;;;;11.75;7.90;;;;;;;;;;5065250;28;20204;-69
2022/08/29 04:12:20;;;;;;;9.48;7.40;;;;;;;;;;5065513;28;20200;-69
2022/08/29 04:14:46;;;;;;;8.32;7.70;;;;;;;;;;5065451;28;20197;-69
2022/08/29 04:17:13;;;;;;;7.65;7.00;;;;;;;;;;5065276;28;20197;-67
2022/08/29 04:19:40;;;;;;;7.82;7.10;;;;;;;;;;5064971;28;20204;-67
2022/08/29 04:22:06;;;;;;;8.88;8.07;;;;;;;;;;5064980;28;20220;-67
2022/08/29 04:24:33;;;;;;;12.75;7.80;;;;;;;;;;5065282;28;20204;-67
2022/08/29 04:26:59;;;;;;;7.63;7.03;;;;;;;;;;5065274;28;20197;-67
2022/08/29 04:29:26;;;;;;;8.45;7.65;;;;;;;;;;5064731;28;20204;-67
2022/08/29 04:31:52;;;;;;;8.80;8.00;;;;;;;;;;5064914;28;20193;-67
2022/08/29 04:34:20;;;;;;;7.65;6.78;;;;;;;;;;5064919;28;20201;-67
2022/08/29 04:36:47;;;;;;;9.38;8.05;;;;;;;;;;5064521;28;20198;-67
2022/08/29 04:39:14;;;;;;;8.38;7.10;;;;;;;;;;5064554;28;20264;-67
2022/08/29 04:41:40;;;;;;;9.65;8.38;;;;;;;;;;5064602;28;20220;-67
2022/08/29 04:44:06;;;;;;;9.60;8.70;;;;;;;;;;5064615;28;20204;-67
2022/08/29 04:46:33;;;;;;;10.02;7.80;;;;;;;;;;5064745;28;20197;-67
2022/08/29 04:48:59;;;;;;;8.88;7.40;;;;;;;;;;5064245;28;20251;-67
2022/08/29 04:51:28;;;;;;;7.88;7.18;;;;;;;;;;5064463;28;20215;-67
2022/08/29 04:53:54;;;;;;;7.90;7.20;;;;;;;;;;5064438;28;20428;-67
2022/08/29 04:56:21;;;;;;;7.63;7.03;;;;;;;;;;5064559;28;20378;-67
2022/08/29 04:58:49;;;;;;;8.70;7.80;;;;;;;;;;5064564;28;20197;-67
2022/08/29 05:01:16;;;;;;;7.85;7.05;;;;;;;;;;5064384;28;20240;-67
2022/08/29 05:03:43;;;;;;;9.80;7.75;;;;;;;;;;5064237;28;20505;-67
2022/08/29 05:06:10;;;;;;;9.02;7.90;;;;;;;;;;5064435;28;20301;-67
2022/08/29 05:08:39;;;;;;;11.23;7.30;;;;;;;;;;5064453;28;20201;-67
2022/08/29 05:11:06;;;;;;;8.80;7.97;;;;;;;;;;5064072;28;20247;-67
2022/08/29 05:13:33;;;;;;;8.25;7.47;;;;;;;;;;5064156;28;20201;-67
2022/08/29 05:15:59;;;;;;;8.15;7.35;;;;;;;;;;5063045;28;20200;-67
2022/08/29 05:18:25;;;;;;;9.50;7.80;;;;;;;;;;5063554;28;20197;-67
2022/08/29 05:20:52;;;;;;;8.75;7.15;;;;;;;;;;5063482;28;20197;-67
2022/08/29 05:23:18;;;;;;;7.28;6.78;;;;;;;;;;5063470;28;20204;-67
2022/08/29 05:25:54;;;;;;;10.05;7.30;;;;;;;;;;5063671;28;20519;-67
2022/08/29 05:28:20;;;;;;;7.95;7.25;;;;;;;;;;5063584;28;20505;-67
2022/08/29 05:30:47;;;;;;;7.95;7.15;;;;;;;;;;5063263;28;20520;-67
2022/08/29 05:33:13;;;;;;;8.23;7.25;;;;;;;;;;5063250;28;20400;-67
2022/08/29 05:35:40;;;;;;;10.77;7.32;;;;;;;;;;5053473;28;20461;-64
2022/08/29 05:38:06;;;;;;;12.35;8.15;;;;;;;;;;5056399;28;20289;-64
2022/08/29 05:40:32;;;;;;;13.25;8.63;;;;;;;;;;5057297;28;20213;-63
2022/08/29 05:43:00;;;;;;;11.25;8.13;;;;;;;;;;5044361;28;20240;-63
2022/08/29 05:45:26;;;;;;;9.60;8.07;;;;;;;;;;5037968;28;20220;-63
2022/08/29 05:47:54;;;;;;;13.38;7.93;;;;;;;;;;5056314;28;20373;-63
2022/08/29 05:50:21;;;;;;;8.57;7.88;;;;;;;;;;5056971;28;20215;-63
2022/08/29 05:52:47;;;;;;;12.90;8.23;;;;;;;;;;5057333;28;20215;-62
2022/08/29 05:55:13;;;;;;;10.25;8.07;;;;;;;;;;5037306;28;20256;-62
2022/08/29 05:57:39;;;;;;;12.00;9.43;;;;;;;;;;5036757;28;20599;-63
2022/08/29 06:00:08;;;;;;;8.77;7.93;;;;;;;;;;5036875;28;20548;-64
2022/08/29 06:02:34;;;;;;;11.30;9.18;;;;;;;;;;5037036;28;20271;-64
2022/08/29 06:05:01;;;;;;;9.68;8.48;;;;;;;;;;5039894;28;20472;-64
2022/08/29 06:07:27;;;;;;;12.00;9.57;;;;;;;;;;5056975;28;20605;-63
2022/08/29 06:09:53;;;;;;;12.18;9.95;;;;;;;;;;5055735;28;20412;-64
2022/08/29 06:12:19;;;;;;;11.00;9.27;;;;;;;;;;5055791;28;20209;-64
2022/08/29 06:14:46;;;;;;;12.07;10.60;;;;;;;;;;5055416;28;20221;-63
2022/08/29 06:17:13;;;;;;;10.50;9.57;;;;;;;;;;5055471;28;20395;-62
2022/08/29 06:19:39;;;;;;;13.95;10.15;;;;;;;;;;5055952;28;20212;-62
2022/08/29 06:22:07;;;;;;;13.48;10.57;;;;;;;;;;5055383;28;20236;-63
2022/08/29 06:24:33;;;;;;;10.65;9.55;;;;;;;;;;5055404;28;20213;-64
2022/08/29 06:27:00;;;;;;;11.27;10.18;;;;;;;;;;5054791;28;20213;-64
2022/08/29 06:29:27;;;;;;;14.73;10.63;;;;;;;;;;5055251;28;20222;-63
2022/08/29 06:31:53;;;;;;;13.77;11.25;;;;;;;;;;5044830;28;20414;-63
2022/08/29 06:34:21;;;;;;;17.33;12.02;;;;;;;;;;5035965;28;20213;-62
2022/08/29 06:36:47;;;;;;;13.23;11.90;;;;;;;;;;5035474;28;20220;-63
2022/08/29 06:39:13;;;;;;;13.40;11.13;;;;;;;;;;5035936;28;20275;-64
2022/08/29 06:41:41;;;;;;;13.38;10.55;;;;;;;;;;5035141;28;20225;-64
2022/08/29 06:44:08;;;;;;;13.00;11.05;;;;;;;;;;5033879;28;20283;-62
2022/08/29 06:46:35;;;;;;;13.65;11.25;;;;;;;;;;5054307;28;20252;-63
2022/08/29 06:49:03;;;;;;;14.20;11.27;;;;;;;;;;5055777;28;20201;-64
2022/08/29 06:51:31;;;;;;;12.55;10.25;;;;;;;;;;5049605;28;20216;-63
2022/08/29 06:53:58;;;;;;;13.57;11.48;;;;;;;;;;5054354;28;20285;-64
2022/08/29 06:56:24;;;;;;;12.77;11.57;;;;;;;;;;5054055;28;20220;-64
2022/08/29 06:58:50;;;;;;;12.27;10.45;;;;;;;;;;5054871;28;20221;-64
2022/08/29 07:01:18;;;;;;;17.38;12.30;;;;;;;;;;5055293;28;20227;-64
2022/08/29 07:03:44;;;;;;;12.73;11.35;;;;;;;;;;5054082;28;20213;-65
2022/08/29 07:06:11;;;;;;;17.92;11.77;;;;;;;;;;5054523;28;20270;-64
2022/08/29 07:08:39;;;;;;;17.70;12.18;;;;;;;;;;5055143;28;20236;-64
2022/08/29 07:11:05;;;;;;;15.20;11.77;;;;;;;;;;5055066;28;20216;-63
2022/08/29 07:13:33;;;;;;;11.90;10.73;;;;;;;;;;5055412;28;20416;-64
2022/08/29 07:15:59;;;;;;;17.60;11.30;;;;;;;;;;5055203;28;20453;-64
2022/08/29 07:18:25;;;;;;;13.82;11.18;;;;;;;;;;5051488;28;20478;-64
2022/08/29 07:20:53;;;;;;;14.50;10.80;;;;;;;;;;5035344;28;20213;-64
2022/08/29 07:23:20;;;;;;;12.88;10.35;;;;;;;;;;5041736;28;20225;-64
2022/08/29 07:25:47;;;;;;;13.05;10.40;;;;;;;;;;5055494;28;20209;-65
2022/08/29 07:28:14;;;;;;;11.88;10.38;;;;;;;;;;5056792;28;20531;-63
2022/08/29 07:30:40;;;;;;;13.95;10.48;;;;;;;;;;5049684;28;20210;-63
2022/08/29 07:33:06;;;;;;;16.77;12.00;;;;;;;;;;5036001;28;20214;-63
2022/08/29 07:35:33;;;;;;;16.92;11.77;;;;;;;;;;5055143;28;20236;-63
2022/08/29 07:37:59;;;;;;;14.57;11.30;;;;;;;;;;5051152;28;20213;-64
2022/08/29 07:40:26;;;;;;;14.48;11.57;;;;;;;;;;5038829;28;20544;-63
2022/08/29 07:42:53;;;;;;;14.98;10.50;;;;;;;;;;5039184;28;20557;-64
2022/08/29 07:45:19;;;;;;;12.48;11.23;;;;;;;;;;5050678;28;20236;-63
2022/08/29 07:47:46;;;;;;;13.82;11.93;;;;;;;;;;5039074;28;20236;-64
2022/08/29 07:50:13;;;;;;;13.07;9.82;;;;;;;;;;5038895;28;20217;-64
2022/08/29 07:52:40;;;;;;;13.27;10.73;;;;;;;;;;5038598;28;20252;-63
2022/08/29 07:55:06;;;;;;;11.20;10.10;;;;;;;;;;5039051;28;20221;-63
2022/08/29 07:57:33;;;;;;;14.77;11.02;;;;;;;;;;5038373;28;20229;-64
2022/08/29 08:00:02;;;;;;;14.65;10.57;;;;;;;;;;5038767;28;20247;-65
2022/08/29 08:02:28;;;;;;;10.15;9.18;;;;;;;;;;5041052;28;20225;-64
2022/08/29 08:04:55;;;;;;;11.82;10.35;;;;;;;;;;5042760;28;20279;-65
2022/08/29 08:07:22;;;;;;;12.18;10.40;;;;;;;;;;5037969;28;20206;-64
2022/08/29 08:09:48;;;;;;;13.13;11.30;;;;;;;;;;5037934;28;20224;-64
2022/08/29 08:12:14;;;;;;;15.23;9.95;;;;;;;;;;5052491;28;20209;-63
2022/08/29 08:14:41;;;;;;;13.00;8.95;;;;;;;;;;5058589;28;20540;-63
2022/08/29 08:17:08;;;;;;;15.48;10.05;;;;;;;;;;5057551;28;20443;-63
2022/08/29 08:19:34;;;;;;;11.70;9.98;;;;;;;;;;5057781;28;20411;-64
2022/08/29 08:22:01;;;;;;;13.93;10.27;;;;;;;;;;5039096;28;20560;-64
2022/08/29 08:24:27;;;;;;;11.07;9.38;;;;;;;;;;5039268;28;20448;-64
2022/08/29 08:26:53;;;;;;;10.43;8.88;;;;;;;;;;5038097;28;20213;-64
2022/08/29 08:29:20;;;;;;;9.57;8.65;;;;;;;;;;5037898;28;20221;-63
2022/08/29 08:31:47;;;;;;;9.68;8.57;;;;;;;;;;5044117;28;20224;-63
2022/08/29 08:34:15;;;;;;;12.32;8.80;;;;;;;;;;5038634;28;20220;-64
2022/08/29 08:36:43;;;;;;;9.48;8.52;;;;;;;;;;5045199;28;20522;-63
2022/08/29 08:39:10;;;;;;;10.57;8.85;;;;;;;;;;5037681;28;20220;-63
2022/08/29 08:41:42;;;;;;;15.73;9.35;;;;;;;;;;5049105;28;20216;-64
2022/08/29 08:44:28;;;;;;;9.05;7.97;;;;;;;;;;5041186;28;20286;-64
2022/08/29 08:46:57;;;;;;;10.57;7.30;;;;;;;;;;5038298;28;20244;-63
2022/08/29 08:49:33;;;;;;;7.90;7.22;;;;;;;;;;5038261;28;20220;-64
2022/08/29 08:52:02;;;;;;;10.93;7.80;;;;;;;;;;5046697;28;20216;-63
2022/08/29 08:54:32;;;;;;;11.85;6.80;;;;;;;;;;5058325;28;20236;-66
2022/08/29 08:57:02;;;;;;;10.52;7.95;;;;;;;;;;5058288;28;20220;-66
2022/08/29 08:59:31;;;;;;;7.88;7.10;;;;;;;;;;5057813;28;20220;-66
2022/08/29 09:02:00;;;;;;;12.35;7.50;;;;;;;;;;5057748;28;20213;-66
2022/08/29 09:04:36;;;;;;;7.72;7.03;;;;;;;;;;5058129;28;20235;-66
2022/08/29 09:07:08;;;;;;;8.93;7.00;;;;;;;;;;5058031;28;20516;-66
2022/08/29 09:09:40;;;;;;;15.27;7.00;;;;;;;;;;5056952;28;20232;-66
2022/08/29 09:12:12;;;;;;;12.35;6.93;;;;;;;;;;5045315;28;20235;-63
2022/08/29 09:14:43;;;;;;;11.23;6.70;;;;;;;;;;5057572;28;20219;-63
2022/08/29 09:17:13;;;;;;;8.52;6.88;;;;;;;;;;5054820;28;20208;-64
2022/08/29 09:19:41;;;;;;;8.40;6.85;;;;;;;;;;5052718;28;20246;-63
2022/08/29 09:22:10;;;;;;;9.65;6.38;;;;;;;;;;5051688;28;20212;-63
2022/08/29 09:24:40;;;;;;;10.70;6.47;;;;;;;;;;5050073;28;20217;-63
2022/08/29 09:27:07;;;;;;;6.93;6.28;;;;;;;;;;5048768;28;20216;-64
2022/08/29 09:29:36;;;;;;;9.60;6.88;;;;;;;;;;5045788;28;20205;-64
2022/08/29 09:32:07;;;;;;;7.70;6.93;;;;;;;;;;5049204;28;20217;-63
2022/08/29 09:34:36;;;;;;;7.40;6.32;;;;;;;;;;5041680;28;20236;-63
2022/08/29 09:37:15;;;;;;;6.60;5.88;;;;;;;;;;5037784;28;20297;-63
2022/08/29 09:39:51;;;;;;;6.85;6.00;;;;;;;;;;5037168;28;20213;-64
2022/08/29 09:42:20;;;;;;;5.28;4.82;;;;;;;;;;5048459;28;20224;-64
2022/08/29 09:44:52;;;;;;;4.35;3.95;;;;;;;;;;5037619;28;20514;-64
2022/08/29 09:47:20;;;;;;;7.55;4.20;;;;;;;;;;5036579;28;20525;-63
2022/08/29 09:50:01;;;;;;;4.13;3.75;;;;;;;;;;5039078;28;20209;-63
2022/08/29 09:52:29;;;;;;;4.10;3.53;;;;;;;;;;5057575;28;20209;-63
2022/08/29 09:54:56;;;;;;;6.47;3.70;;;;;;;;;;5056976;28;20409;-62
2022/08/29 09:57:24;;;;;;;3.97;3.45;;;;;;;;;;5056378;28;20535;-64
2022/08/29 10:00:04;;;;;;;4.93;3.95;;;;;;;;;;5056823;28;20458;-65
2022/08/29 10:02:32;;;;;;;5.05;3.83;;;;;;;;;;5056898;28;20229;-64
2022/08/29 10:05:00;;;;;;;5.88;4.38;;;;;;;;;;5056416;28;20232;-63
2022/08/29 10:07:28;;;;;;;3.80;3.50;;;;;;;;;;5056120;28;20254;-64
2022/08/29 10:09:59;;;;;;;5.32;3.25;;;;;;;;;;5056405;28;20291;-63
2022/08/29 10:12:28;;;;;;;7.00;3.75;;;;;;;;;;5053078;28;20293;-63
2022/08/29 10:15:00;;;;;;;4.35;3.63;;;;;;;;;;5047853;28;20235;-64
2022/08/29 10:20:12;;;;;;;4.28;3.88;;;;;;;;;;5041569;28;20566;-63
2022/08/29 10:22:41;;;;;;;4.20;3.75;;;;;;;;;;5036393;28;20224;-64
2022/08/29 10:25:15;;;;;;;4.22;3.60;;;;;;;;;;5036798;28;20439;-64
2022/08/29 10:27:43;;;;;;;5.43;3.63;;;;;;;;;;5035743;28;20272;-64
2022/08/29 10:30:10;;;;;;;5.00;3.50;;;;;;;;;;5036942;28;20222;-64
2022/08/29 10:32:44;;;;;;;3.63;3.33;;;;;;;;;;5056937;28;20212;-64
2022/08/29 10:35:14;;;;;;;7.20;3.33;;;;;;;;;;5050905;28;20220;-64
2022/08/29 10:37:46;;;;;;;4.68;3.67;;;;;;;;;;5035863;28;20240;-65
2022/08/29 10:40:17;;;;;;;8.25;3.60;;;;;;;;;;5046125;28;20274;-63
2022/08/29 10:42:44;;;;;;;3.75;3.40;;;;;;;;;;5055838;28;20244;-63
2022/08/29 10:45:14;;;;;;;5.53;2.90;;;;;;;;;;5055931;28;20212;-63
2022/08/29 10:47:42;;;;;;;4.15;3.25;;;;;;;;;;5055869;28;20415;-63
2022/08/29 10:50:23;;;;;;;7.30;3.45;;;;;;;;;;5056020;28;20216;-63
2022/08/29 10:52:53;;;;;;;3.42;2.90;;;;;;;;;;5053809;28;20212;-62
2022/08/29 10:55:25;;;;;;;3.10;2.90;;;;;;;;;;5056000;28;20532;-63
2022/08/29 10:57:58;;;;;;;3.50;3.20;;;;;;;;;;5055069;28;20266;-63
2022/08/29 11:00:27;;;;;;;3.03;2.83;;;;;;;;;;5055301;28;20585;-64
2022/08/29 11:02:57;;;;;;;4.72;3.17;;;;;;;;;;5055922;28;20562;-64
2022/08/29 11:05:26;;;;;;;3.60;3.40;;;;;;;;;;5055216;28;20228;-64
2022/08/29 11:07:56;;;;;;;3.20;3.00;;;;;;;;;;5055116;28;20254;-64
2022/08/29 11:10:25;;;;;;;3.03;2.92;;;;;;;;;;5055394;28;20524;-64
2022/08/29 11:12:53;;;;;;;5.10;3.53;;;;;;;;;;5054597;28;20219;-63
2022/08/29 11:15:24;;;;;;;3.25;3.05;;;;;;;;;;5055455;28;20212;-63
2022/08/29 11:17:53;;;;;;;5.25;2.72;;;;;;;;;;5055535;28;20201;-63
2022/08/29 11:20:21;;;;;;;5.80;3.25;;;;;;;;;;5036786;28;20213;-63
2022/08/29 11:22:49;;;;;;;4.13;3.08;;;;;;;;;;5035660;28;20540;-63
2022/08/29 11:25:17;;;;;;;3.70;2.80;;;;;;;;;;5035817;28;20253;-64
2022/08/29 11:27:51;;;;;;;3.50;3.20;;;;;;;;;;5040391;28;20205;-64
2022/08/29 11:30:19;;;;;;;3.40;3.10;;;;;;;;;;5054887;28;20384;-64
2022/08/29 11:32:50;;;;;;;3.85;2.60;;;;;;;;;;5055850;28;20216;-63
2022/08/29 11:35:19;;;;;;;3.55;2.97;;;;;;;;;;5054829;28;20449;-63
2022/08/29 11:38:00;;;;;;;3.60;3.22;;;;;;;;;;5054342;28;20213;-64
2022/08/29 11:40:36;;;;;;;2.90;2.70;;;;;;;;;;5055293;28;20401;-64
2022/08/29 11:43:04;;;;;;;4.18;3.10;;;;;;;;;;5056011;28;20224;-62
2022/08/29 11:45:34;;;;;;;3.30;2.95;;;;;;;;;;5054870;28;20219;-64
2022/08/29 11:48:02;;;;;;;3.92;2.42;;;;;;;;;;5055512;28;20219;-64
2022/08/29 11:50:31;;;;;;;2.72;2.63;;;;;;;;;;5055306;28;20216;-64
2022/08/29 11:52:59;;;;;;;4.97;2.63;;;;;;;;;;5055002;28;20410;-65
2022/08/29 11:55:29;;;;;;;4.40;3.22;;;;;;;;;;5055312;28;20239;-65
2022/08/29 11:57:57;;;;;;;3.20;3.00;;;;;;;;;;5054567;28;20428;-65
2022/08/29 12:00:31;;;;;;;2.65;2.53;;;;;;;;;;5042382;28;20212;-65
2022/08/29 12:02:57;;;;;;;3.55;2.92;;;;;;;;;;5043932;28;20217;-64
2022/08/29 12:05:45;;;;;;;2.63;2.42;;;;;;;;;;5035519;28;20229;-64
2022/08/29 12:08:12;;;;;;;4.18;2.90;;;;;;;;;;5036434;28;20247;-64
2022/08/29 12:10:50;;;;;;;3.33;2.97;;;;;;;;;;5054993;28;20450;-64
2022/08/29 12:13:43;;;;;;;4.40;2.97;;;;;;;;;;5055474;28;20208;-64
2022/08/29 12:16:12;;;;;;;4.18;2.95;;;;;;;;;;5055512;28;20212;-64
2022/08/29 12:18:49;;;;;;;2.90;2.70;;;;;;;;;;5050156;28;20204;-65
2022/08/29 12:21:32;;;;;;;2.97;2.78;;;;;;;;;;5053247;28;20470;-64
2022/08/29 12:23:59;;;;;;;3.25;2.92;;;;;;;;;;5035590;28;20225;-64
2022/08/29 12:26:40;;;;;;;3.15;2.88;;;;;;;;;;5038075;28;20220;-63
2022/08/29 12:29:06;;;;;;;5.30;2.60;;;;;;;;;;5043487;28;20209;-63
2022/08/29 12:32:01;;;;;;;3.40;3.08;;;;;;;;;;5038660;28;20524;-64
2022/08/29 12:34:37;;;;;;;3.05;2.85;;;;;;;;;;5038711;28;20208;-63
2022/08/29 12:37:17;;;;;;;4.38;2.58;;;;;;;;;;5038508;28;20416;-63
2022/08/29 12:40:01;;;;;;;3.33;3.03;;;;;;;;;;5037700;28;20451;-63
2022/08/29 12:42:31;;;;;;;3.45;3.22;;;;;;;;;;5038009;28;20217;-64
2022/08/29 12:44:58;;;;;;;3.17;2.90;;;;;;;;;;5038467;28;20236;-64
2022/08/29 12:47:27;;;;;;;4.68;2.72;;;;;;;;;;5038099;28;20209;-64
2022/08/29 12:49:54;;;;;;;3.25;2.85;;;;;;;;;;5038356;28;20220;-63
2022/08/29 12:52:23;;;;;;;3.45;3.25;;;;;;;;;;5038457;28;20252;-65
2022/08/29 12:54:50;;;;;;;2.92;2.70;;;;;;;;;;5037770;28;20537;-64
2022/08/29 12:57:18;;;;;;;3.22;3.03;;;;;;;;;;5037653;28;20224;-64
2022/08/29 12:59:46;;;;;;;3.50;3.17;;;;;;;;;;5037969;28;20431;-64
2022/08/29 13:02:21;;;;;;;3.17;3.00;;;;;;;;;;5055229;28;20213;-64
2022/08/29 13:04:49;;;;;;;7.97;3.03;;;;;;;;;;5057620;28;20469;-63
2022/08/29 13:07:16;;;;;;;3.05;2.92;;;;;;;;;;5057640;28;20373;-63
2022/08/29 13:09:44;;;;;;;3.40;3.20;;;;;;;;;;5056862;28;20220;-63
2022/08/29 13:12:12;;;;;;;2.88;2.78;;;;;;;;;;5057660;28;20220;-63
2022/08/29 13:14:49;;;;;;;3.70;3.50;;;;;;;;;;5057768;28;20215;-63
2022/08/29 13:17:16;;;;;;;3.38;3.10;;;;;;;;;;5057168;28;20216;-64
2022/08/29 13:20:02;;;;;;;3.00;2.80;;;;;;;;;;5043229;28;20235;-64
2022/08/29 13:22:30;;;;;;;3.47;3.20;;;;;;;;;;5038518;28;20596;-64
2022/08/29 13:25:02;;;;;;;3.17;2.97;;;;;;;;;;5037758;28;20594;-63
2022/08/29 13:27:28;;;;;;;3.55;3.10;;;;;;;;;;5050156;28;20220;-64
2022/08/29 13:29:58;;;;;;;3.10;2.67;;;;;;;;;;5038365;28;20300;-64
2022/08/29 13:32:25;;;;;;;2.90;2.70;;;;;;;;;;5057024;28;20212;-64
2022/08/29 13:35:03;;;;;;;3.13;2.92;;;;;;;;;;5057279;28;20574;-65
2022/08/29 13:37:31;;;;;;;4.15;2.88;;;;;;;;;;5056441;28;20212;-64
2022/08/29 13:40:18;;;;;;;3.40;3.20;;;;;;;;;;5057491;28;20422;-64
2022/08/29 13:42:45;;;;;;;3.65;3.35;;;;;;;;;;5039108;28;20386;-64
2022/08/29 13:45:13;;;;;;;2.97;2.78;;;;;;;;;;5050133;28;20225;-64
2022/08/29 13:47:42;;;;;;;4.38;3.13;;;;;;;;;;5056786;28;20213;-65
2022/08/29 13:50:10;;;;;;;3.05;2.75;;;;;;;;;;5057078;28;20676;-65
2022/08/29 13:52:37;;;;;;;2.95;2.72;;;;;;;;;;5056628;28;20255;-64
2022/08/29 13:55:05;;;;;;;5.57;3.05;;;;;;;;;;5056708;28;20209;-64
2022/08/29 13:57:33;;;;;;;4.22;3.00;;;;;;;;;;5055797;28;20224;-64
2022/08/29 14:00:01;;;;;;;3.58;2.60;;;;;;;;;;5056797;28;20212;-64
2022/08/29 14:02:28;;;;;;;2.90;2.70;;;;;;;;;;5056252;28;20212;-65
2022/08/29 14:04:54;;;;;;;3.25;2.80;;;;;;;;;;5056227;28;20240;-65
2022/08/29 14:07:22;;;;;;;3.35;3.05;;;;;;;;;;5046356;28;20284;-65
2022/08/29 14:09:49;;;;;;;3.05;2.85;;;;;;;;;;5055322;28;20218;-65
2022/08/29 14:12:16;;;;;;;3.25;2.95;;;;;;;;;;5056817;28;20216;-65
2022/08/29 14:14:42;;;;;;;3.13;2.85;;;;;;;;;;5056565;28;20513;-65
2022/08/29 14:17:11;;;;;;;4.25;3.25;;;;;;;;;;5056135;28;20563;-65
2022/08/29 14:19:37;;;;;;;3.22;2.97;;;;;;;;;;5055322;28;20578;-65
2022/08/29 14:22:03;;;;;;;3.25;3.00;;;;;;;;;;5036807;28;20444;-65
2022/08/29 14:24:30;;;;;;;2.92;2.72;;;;;;;;;;5052369;28;20228;-64
2022/08/29 14:26:57;;;;;;;5.13;2.92;;;;;;;;;;5056091;28;20215;-65
2022/08/29 14:29:23;;;;;;;4.35;2.90;;;;;;;;;;5055780;28;20212;-66
2022/08/29 14:31:50;;;;;;;2.88;2.55;;;;;;;;;;5056498;28;20212;-65
2022/08/29 14:34:18;;;;;;;3.20;3.10;;;;;;;;;;5056334;28;20523;-65
2022/08/29 14:36:44;;;;;;;4.80;2.80;;;;;;;;;;5055553;28;20535;-65
2022/08/29 14:39:10;;;;;;;4.10;3.25;;;;;;;;;;5055705;28;20217;-65
2022/08/29 14:41:36;;;;;;;4.65;3.08;;;;;;;;;;5056481;28;20227;-65
2022/08/29 14:44:03;;;;;;;2.80;2.60;;;;;;;;;;5047036;28;20666;-65
2022/08/29 14:46:29;;;;;;;3.10;2.83;;;;;;;;;;5039364;28;20477;-64
2022/08/29 14:48:55;;;;;;;2.97;2.78;;;;;;;;;;5035034;28;20520;-64
2022/08/29 14:51:23;;;;;;;2.78;2.58;;;;;;;;;;5035851;28;20232;-65
2022/08/29 14:53:52;;;;;;;2.75;2.65;;;;;;;;;;5036083;28;20220;-65